Time;durP1;ratioP1;P1;durP2;ratioP2;P2;SDS_P1;SDS_P2;PMS_P1;PMS_P2;Temp;Humidity;BMP_temperature;BMP_pressure;BME280_temperature;BME280_humidity;BME280_pressure;Samples;Min_cycle;Max_cycle;Signal;HPM_P1;HPM_P2
2023/01/09 00:00:17;;;;;;;11.52;9.63;;;6.30;99.90;;;;;;6213475;23;20404;-86
2023/01/09 00:02:43;;;;;;;11.57;9.83;;;6.20;99.90;;;;;;6213816;23;20378;-86
2023/01/09 00:05:14;;;;;;;11.48;9.23;;;6.20;99.90;;;;;;6213361;23;20362;-86
2023/01/09 00:07:40;;;;;;;11.48;9.73;;;6.10;99.90;;;;;;6211457;23;20373;-85
2023/01/09 00:10:07;;;;;;;12.40;9.65;;;6.10;99.90;;;;;;6213908;23;20345;-86
2023/01/09 00:12:33;;;;;;;10.23;9.07;;;6.00;99.90;;;;;;6214782;23;20368;-87
2023/01/09 00:14:59;;;;;;;11.93;10.25;;;5.90;99.90;;;;;;6213140;23;20354;-86
2023/01/09 00:17:24;;;;;;;12.27;10.00;;;5.80;99.90;;;;;;6214013;23;20338;-87
2023/01/09 00:19:50;;;;;;;12.33;10.53;;;5.70;99.90;;;;;;6214027;23;20806;-86
2023/01/09 00:22:16;;;;;;;11.53;9.73;;;5.80;99.90;;;;;;6213650;23;20385;-86
2023/01/09 00:24:41;;;;;;;11.95;10.13;;;5.80;99.90;;;;;;6214516;23;20381;-86
2023/01/09 00:27:07;;;;;;;14.52;11.02;;;5.70;99.90;;;;;;6213190;23;20786;-86
2023/01/09 00:29:33;;;;;;;13.70;10.30;;;5.60;99.90;;;;;;6215397;23;20346;-86
2023/01/09 00:31:59;;;;;;;12.33;10.50;;;5.40;99.90;;;;;;6215005;23;20338;-87
2023/01/09 00:34:25;;;;;;;13.13;10.55;;;5.40;99.90;;;;;;6213807;23;20428;-87
2023/01/09 00:36:55;;;;;;;14.23;11.27;;;5.20;99.90;;;;;;6214407;23;20342;-87
2023/01/09 00:39:23;;;;;;;12.98;10.38;;;5.20;99.90;;;;;;6213647;23;20350;-86
2023/01/09 00:41:53;;;;;;;12.82;10.88;;;5.30;99.90;;;;;;6214279;23;20338;-87
2023/01/09 00:44:28;;;;;;;15.55;11.38;;;5.20;99.90;;;;;;6215212;23;20346;-87
2023/01/09 00:47:00;;;;;;;13.05;10.98;;;5.30;99.90;;;;;;6213491;23;20348;-86
2023/01/09 00:49:30;;;;;;;13.45;11.50;;;5.30;99.90;;;;;;6214180;23;20356;-87
2023/01/09 00:51:55;;;;;;;12.67;10.67;;;5.20;99.90;;;;;;6215956;23;20342;-86
2023/01/09 00:54:22;;;;;;;15.17;12.23;;;5.30;99.90;;;;;;6213035;23;20437;-86
2023/01/09 00:56:49;;;;;;;14.43;11.70;;;5.30;99.90;;;;;;6212478;23;20489;-87
2023/01/09 00:59:15;;;;;;;12.65;11.27;;;5.20;99.90;;;;;;6215312;23;20358;-86
2023/01/09 01:01:40;;;;;;;14.02;11.32;;;5.30;99.90;;;;;;6216620;23;20329;-86
2023/01/09 01:09:34;;;;;;;12.63;11.30;;;5.40;99.90;;;;;;6237657;23;20438;-87
2023/01/09 01:12:05;;;;;;;14.18;11.85;;;5.40;99.90;;;;;;6238746;23;20354;-86
2023/01/09 01:14:33;;;;;;;14.82;11.77;;;5.40;99.90;;;;;;6217400;23;20361;-86
2023/01/09 01:16:59;;;;;;;13.98;12.00;;;5.30;99.90;;;;;;6213875;23;20358;-87
2023/01/09 01:19:24;;;;;;;13.35;11.95;;;5.30;99.90;;;;;;6214805;23;20373;-87
2023/01/09 01:21:50;;;;;;;13.07;11.55;;;5.30;99.90;;;;;;6213255;23;20834;-86
2023/01/09 01:24:18;;;;;;;12.80;11.30;;;5.40;99.90;;;;;;6213393;23;20737;-87
2023/01/09 01:26:45;;;;;;;12.95;11.57;;;5.40;99.90;;;;;;6215028;23;20366;-87
2023/01/09 01:29:11;;;;;;;13.73;12.10;;;5.40;99.90;;;;;;6211936;23;20374;-87
2023/01/09 01:31:37;;;;;;;14.75;11.85;;;5.30;99.90;;;;;;6212185;23;20361;-87
2023/01/09 01:34:02;;;;;;;13.20;11.23;;;5.30;99.90;;;;;;6213669;23;20365;-86
2023/01/09 01:36:28;;;;;;;14.10;12.00;;;5.30;99.90;;;;;;6212869;23;20666;-87
2023/01/09 01:38:54;;;;;;;13.20;11.80;;;5.30;99.90;;;;;;6213197;23;20449;-87
2023/01/09 01:41:28;;;;;;;12.95;11.55;;;5.50;99.90;;;;;;6212874;23;20358;-87
2023/01/09 01:44:25;;;;;;;14.68;11.82;;;5.50;99.90;;;;;;6213938;23;20429;-87
2023/01/09 01:46:52;;;;;;;13.50;11.85;;;5.30;99.90;;;;;;6211871;23;20649;-87
2023/01/09 01:49:19;;;;;;;13.65;11.80;;;5.10;99.90;;;;;;6212425;23;20411;-86
2023/01/09 01:51:50;;;;;;;13.23;11.52;;;5.10;99.90;;;;;;6211190;23;20362;-86
2023/01/09 01:54:21;;;;;;;14.00;12.02;;;5.10;99.90;;;;;;6217315;23;20330;-87
2023/01/09 01:56:55;;;;;;;15.13;12.60;;;5.00;99.90;;;;;;6212230;23;20354;-87
2023/01/09 01:59:58;;;;;;;14.93;12.35;;;5.00;99.90;;;;;;6214690;23;20334;-87
2023/01/09 02:02:27;;;;;;;16.23;13.18;;;5.00;99.90;;;;;;6067944;23;20361;-87
2023/01/09 02:04:56;;;;;;;14.90;12.80;;;4.90;99.90;;;;;;6186784;23;20354;-86
2023/01/09 02:07:22;;;;;;;14.75;13.23;;;4.80;99.90;;;;;;6212952;23;20361;-86
2023/01/09 02:09:48;;;;;;;15.77;13.53;;;4.80;99.90;;;;;;6213078;23;20419;-86
2023/01/09 02:12:22;;;;;;;16.27;13.65;;;4.80;99.90;;;;;;6212178;23;20346;-86
2023/01/09 02:15:07;;;;;;;14.60;12.63;;;4.80;99.90;;;;;;6211785;23;20346;-86
2023/01/09 02:17:54;;;;;;;15.27;13.30;;;4.80;99.90;;;;;;6210857;23;20357;-86
2023/01/09 02:20:38;;;;;;;15.98;13.43;;;4.80;99.90;;;;;;6213950;23;20334;-87
2023/01/09 02:23:25;;;;;;;17.03;13.50;;;4.70;99.90;;;;;;6212344;23;20365;-86
2023/01/09 02:26:00;;;;;;;16.03;13.57;;;4.70;99.90;;;;;;6211721;23;20400;-86
2023/01/09 02:28:45;;;;;;;15.77;13.90;;;4.70;99.90;;;;;;6212063;23;20686;-86
2023/01/09 02:31:43;;;;;;;16.77;13.90;;;4.70;99.90;;;;;;6211545;23;20392;-87
2023/01/09 02:34:23;;;;;;;16.77;14.98;;;4.70;99.90;;;;;;6213399;23;20338;-86
2023/01/09 02:36:55;;;;;;;17.67;14.77;;;4.80;99.90;;;;;;6213237;23;20350;-86
2023/01/09 02:39:46;;;;;;;17.85;14.40;;;4.70;99.90;;;;;;6215068;23;20334;-86
2023/01/09 02:42:31;;;;;;;19.02;15.27;;;4.70;99.90;;;;;;6214936;23;20345;-87
2023/01/09 02:44:57;;;;;;;17.50;15.18;;;4.70;99.90;;;;;;6213830;23;20361;-85
2023/01/09 02:47:23;;;;;;;19.35;16.10;;;4.60;99.90;;;;;;6216590;23;20362;-86
2023/01/09 02:49:52;;;;;;;18.63;15.57;;;4.70;99.90;;;;;;6212217;23;20388;-86
2023/01/09 02:52:39;;;;;;;17.08;14.63;;;4.70;99.90;;;;;;6210390;23;20359;-86
2023/01/09 02:55:06;;;;;;;19.53;15.97;;;4.80;99.90;;;;;;6196482;22;20666;-86
2023/01/09 02:57:55;;;;;;;19.20;16.23;;;4.80;99.90;;;;;;6211594;23;20673;-86
2023/01/09 03:00:55;;;;;;;18.10;16.07;;;4.90;99.90;;;;;;6215775;23;20799;-86
2023/01/09 03:03:43;;;;;;;19.80;16.63;;;4.90;99.90;;;;;;6211317;23;20357;-87
2023/01/09 03:06:27;;;;;;;21.10;17.00;;;4.80;99.90;;;;;;6215060;23;20693;-87
2023/01/09 03:09:01;;;;;;;19.13;16.90;;;4.70;99.90;;;;;;6212671;23;20832;-86
2023/01/09 03:11:32;;;;;;;19.80;16.30;;;4.80;99.90;;;;;;6213260;23;21147;-86
2023/01/09 03:14:09;;;;;;;21.85;16.83;;;5.00;99.90;;;;;;6216750;23;20358;-88
2023/01/09 03:16:37;;;;;;;19.50;16.63;;;5.00;99.90;;;;;;6216864;23;20365;-86
2023/01/09 03:19:11;;;;;;;18.23;15.77;;;5.00;99.90;;;;;;6218224;23;20492;-86
2023/01/09 03:21:38;;;;;;;19.40;16.70;;;5.10;99.90;;;;;;6210872;23;20397;-85
2023/01/09 03:24:04;;;;;;;19.48;15.90;;;5.00;99.90;;;;;;6212904;23;20354;-86
2023/01/09 03:26:30;;;;;;;20.17;16.30;;;5.10;99.90;;;;;;6211904;23;20434;-86
2023/01/09 03:28:57;;;;;;;19.42;16.80;;;5.10;99.90;;;;;;6213608;23;20460;-86
2023/01/09 03:31:23;;;;;;;18.98;16.65;;;5.00;99.90;;;;;;6217346;23;20825;-87
2023/01/09 03:33:49;;;;;;;18.73;16.02;;;5.10;99.90;;;;;;6217019;23;20493;-85
2023/01/09 03:36:16;;;;;;;18.17;15.80;;;5.20;99.90;;;;;;6218718;23;20713;-86
2023/01/09 03:38:42;;;;;;;17.55;15.73;;;5.20;99.90;;;;;;6222457;23;20342;-86
2023/01/09 03:41:08;;;;;;;18.02;15.88;;;5.10;99.90;;;;;;6223366;23;20429;-85
2023/01/09 03:43:34;;;;;;;18.15;15.48;;;5.20;99.90;;;;;;6237544;23;20337;-87
2023/01/09 03:46:00;;;;;;;18.45;15.20;;;5.30;99.90;;;;;;6230572;23;20417;-86
2023/01/09 03:48:26;;;;;;;16.75;14.60;;;5.40;99.90;;;;;;6210745;23;20374;-86
2023/01/09 03:50:52;;;;;;;17.63;15.18;;;5.40;99.90;;;;;;6213569;23;20801;-87
2023/01/09 03:53:20;;;;;;;16.98;15.23;;;5.30;99.90;;;;;;6210489;23;20361;-86
2023/01/09 03:55:48;;;;;;;17.73;15.63;;;5.40;99.90;;;;;;6211504;23;20358;-86
2023/01/09 03:58:14;;;;;;;16.73;14.48;;;5.30;99.90;;;;;;6210935;23;20361;-85
2023/01/09 04:00:40;;;;;;;16.88;14.60;;;5.40;99.90;;;;;;6211484;23;20339;-86
2023/01/09 04:03:07;;;;;;;16.27;14.50;;;5.40;99.90;;;;;;6213443;23;20353;-87
2023/01/09 04:05:34;;;;;;;18.08;14.38;;;5.30;99.90;;;;;;6211817;23;20436;-86
2023/01/09 04:07:59;;;;;;;17.35;15.45;;;5.40;99.90;;;;;;6208443;23;20393;-86
2023/01/09 04:10:25;;;;;;;16.45;14.63;;;5.40;99.90;;;;;;6207910;23;20350;-86
2023/01/09 04:12:51;;;;;;;17.47;15.13;;;5.40;99.90;;;;;;6210972;23;20421;-86
2023/01/09 04:15:16;;;;;;;16.70;14.90;;;5.40;99.90;;;;;;6210222;23;20424;-86
2023/01/09 04:17:42;;;;;;;16.77;14.98;;;5.40;99.90;;;;;;6210920;23;20381;-86
2023/01/09 04:20:09;;;;;;;17.63;15.77;;;5.40;99.90;;;;;;6211230;23;20354;-86
2023/01/09 04:22:34;;;;;;;17.80;15.87;;;5.30;99.90;;;;;;6210245;23;20350;-85
2023/01/09 04:25:00;;;;;;;18.73;16.10;;;5.20;99.90;;;;;;6211196;23;20354;-86
2023/01/09 04:27:26;;;;;;;16.98;15.00;;;5.20;99.90;;;;;;6212502;23;20373;-85
2023/01/09 04:29:52;;;;;;;18.05;16.15;;;5.20;99.90;;;;;;6213518;23;20866;-86
2023/01/09 04:32:18;;;;;;;18.80;16.20;;;5.10;99.90;;;;;;6211533;23;20776;-86
2023/01/09 04:34:43;;;;;;;18.50;16.50;;;5.10;99.90;;;;;;6214848;23;20445;-86
2023/01/09 04:37:09;;;;;;;19.30;17.00;;;5.20;99.90;;;;;;6214688;23;20357;-86
2023/01/09 04:39:35;;;;;;;20.35;17.08;;;5.20;99.90;;;;;;6213817;23;20353;-86
2023/01/09 04:42:00;;;;;;;19.65;17.15;;;5.10;99.90;;;;;;6212091;23;20358;-86
2023/01/09 04:44:26;;;;;;;19.80;17.70;;;5.20;99.90;;;;;;6213324;23;20330;-86
2023/01/09 04:46:53;;;;;;;20.93;17.93;;;5.10;99.90;;;;;;6215085;23;20358;-87
2023/01/09 04:49:19;;;;;;;20.30;18.10;;;5.20;99.90;;;;;;6215358;23;20457;-86
2023/01/09 04:51:45;;;;;;;20.45;17.70;;;5.20;99.90;;;;;;6211249;23;20366;-88
2023/01/09 04:54:11;;;;;;;21.00;18.20;;;5.20;99.90;;;;;;6214300;23;20403;-85
2023/01/09 04:56:37;;;;;;;19.92;17.50;;;5.20;99.90;;;;;;6210802;23;20342;-86
2023/01/09 04:59:04;;;;;;;20.40;18.17;;;5.30;99.90;;;;;;6214344;23;20374;-85
2023/01/09 05:01:30;;;;;;;20.58;18.13;;;5.30;99.90;;;;;;6213333;23;20866;-86
2023/01/09 05:03:56;;;;;;;21.50;18.95;;;5.30;99.90;;;;;;6214546;23;20362;-85
2023/01/09 05:06:22;;;;;;;20.38;18.08;;;5.30;99.90;;;;;;6215228;23;20338;-85
2023/01/09 05:08:47;;;;;;;20.43;18.27;;;5.40;99.90;;;;;;6211933;23;20374;-86
2023/01/09 05:11:13;;;;;;;20.90;17.93;;;5.30;99.90;;;;;;6216526;23;20357;-86
2023/01/09 05:13:39;;;;;;;19.60;17.50;;;5.40;99.90;;;;;;6218700;23;20358;-85
2023/01/09 05:16:05;;;;;;;20.13;18.00;;;5.50;99.90;;;;;;6215773;23;20902;-85
2023/01/09 05:18:30;;;;;;;20.75;18.55;;;5.50;99.90;;;;;;6214708;23;20432;-86
2023/01/09 05:20:56;;;;;;;22.75;19.25;;;5.60;99.90;;;;;;6213918;23;20361;-85
2023/01/09 05:23:22;;;;;;;19.80;17.37;;;5.50;99.90;;;;;;6213785;23;20411;-85
2023/01/09 05:25:47;;;;;;;21.35;18.75;;;5.70;99.90;;;;;;6213175;23;20354;-85
2023/01/09 05:28:13;;;;;;;21.75;19.00;;;5.60;99.90;;;;;;6214897;23;20432;-84
2023/01/09 05:30:39;;;;;;;21.43;18.17;;;5.60;99.90;;;;;;6216334;23;20839;-85
2023/01/09 05:33:04;;;;;;;20.90;18.00;;;5.60;99.90;;;;;;6218823;23;20350;-87
2023/01/09 05:35:30;;;;;;;22.35;19.15;;;5.70;99.90;;;;;;6218989;23;20361;-85
2023/01/09 05:37:56;;;;;;;21.45;19.15;;;5.70;99.90;;;;;;6216352;23;20362;-87
2023/01/09 05:40:22;;;;;;;22.33;19.37;;;5.60;99.90;;;;;;6204942;23;20883;-87
2023/01/09 05:42:47;;;;;;;21.20;18.75;;;5.70;99.90;;;;;;6209378;23;20385;-87
2023/01/09 05:45:13;;;;;;;21.37;18.97;;;5.80;99.90;;;;;;6213502;23;20369;-86
2023/01/09 05:47:39;;;;;;;22.48;19.55;;;5.90;99.90;;;;;;6214852;23;20397;-87
2023/01/09 05:50:05;;;;;;;22.83;19.67;;;5.80;99.90;;;;;;6215661;23;20362;-87
2023/01/09 05:52:31;;;;;;;24.67;20.58;;;5.80;99.90;;;;;;6213460;23;20342;-87
2023/01/09 05:54:56;;;;;;;22.15;19.75;;;5.80;99.90;;;;;;6210782;23;20369;-87
2023/01/09 05:57:22;;;;;;;22.08;19.60;;;5.80;99.90;;;;;;6213606;23;20358;-90
2023/01/09 05:59:48;;;;;;;23.40;19.45;;;5.90;99.90;;;;;;6211739;23;20372;-88
2023/01/09 06:02:14;;;;;;;22.10;19.20;;;6.00;99.90;;;;;;6214643;23;20820;-88
2023/01/09 06:04:42;;;;;;;24.40;20.30;;;6.10;99.90;;;;;;6213771;23;20346;-87
2023/01/09 06:07:12;;;;;;;23.40;19.88;;;6.20;99.90;;;;;;6211828;23;20385;-88
2023/01/09 06:09:40;;;;;;;22.30;19.35;;;6.20;99.90;;;;;;6211673;23;20361;-88
2023/01/09 06:12:06;;;;;;;22.48;19.30;;;6.30;99.90;;;;;;6213245;23;20342;-88
2023/01/09 06:14:32;;;;;;;21.35;18.33;;;6.30;99.90;;;;;;6215321;23;20354;-87
2023/01/09 06:16:58;;;;;;;22.15;19.52;;;6.40;99.90;;;;;;6215913;23;20674;-85
2023/01/09 06:19:27;;;;;;;21.85;18.55;;;6.30;99.90;;;;;;6210787;23;20832;-86
2023/01/09 06:21:53;;;;;;;23.55;19.50;;;6.30;99.90;;;;;;6219792;23;20382;-89
2023/01/09 06:24:19;;;;;;;24.55;20.73;;;6.30;99.90;;;;;;6232144;23;20357;-86
2023/01/09 06:26:44;;;;;;;26.48;21.05;;;6.20;99.90;;;;;;6225298;23;20354;-90
2023/01/09 06:29:23;;;;;;;28.63;21.07;;;6.10;99.90;;;;;;6219357;23;20369;-89
2023/01/09 06:31:48;;;;;;;23.00;19.13;;;6.20;99.90;;;;;;6216930;23;20360;-90
2023/01/09 06:34:27;;;;;;;25.88;21.02;;;6.30;99.90;;;;;;6218007;23;20354;-89
2023/01/09 06:36:53;;;;;;;26.67;21.10;;;6.20;99.90;;;;;;6223418;23;20373;-91
2023/01/09 06:39:19;;;;;;;26.10;20.58;;;6.30;99.90;;;;;;6223778;23;20350;-90
2023/01/09 06:41:45;;;;;;;26.67;20.77;;;6.30;99.90;;;;;;6225615;23;20364;-91
2023/01/09 06:44:14;;;;;;;26.63;20.73;;;6.10;99.90;;;;;;6223994;23;20350;-89
2023/01/09 06:46:40;;;;;;;29.05;22.05;;;6.20;99.90;;;;;;6222946;23;20360;-88
2023/01/09 06:49:07;;;;;;;28.83;21.90;;;6.10;99.90;;;;;;6228603;23;20393;-87
2023/01/09 06:51:33;;;;;;;28.25;22.17;;;6.00;99.90;;;;;;6231994;23;20386;-87
2023/01/09 06:53:58;;;;;;;31.77;24.60;;;6.10;99.90;;;;;;6226113;23;20434;-88
2023/01/09 06:56:24;;;;;;;27.87;22.63;;;6.00;99.90;;;;;;6221999;23;20413;-89
2023/01/09 06:59:07;;;;;;;30.75;23.05;;;6.10;99.90;;;;;;5117293;27;20427;-91
2023/01/09 07:01:33;;;;;;;33.93;24.07;;;6.00;99.90;;;;;;5118203;28;20472;-91
2023/01/09 07:04:08;;;;;;;33.23;24.60;;;6.10;99.90;;;;;;5111961;28;20486;-90
2023/01/09 07:06:43;;;;;;;37.40;26.27;;;6.00;99.90;;;;;;5110071;28;20390;-89
2023/01/09 07:09:12;;;;;;;36.33;26.27;;;5.90;99.90;;;;;;5112709;28;20427;-89
2023/01/09 07:11:38;;;;;;;34.17;25.20;;;5.90;99.90;;;;;;5107351;28;20409;-86
2023/01/09 07:14:05;;;;;;;32.92;24.27;;;6.10;99.90;;;;;;5106644;28;20387;-85
2023/01/09 07:16:31;;;;;;;33.92;25.20;;;6.20;99.90;;;;;;5107855;28;20396;-86
2023/01/09 07:18:56;;;;;;;38.57;26.67;;;6.20;99.90;;;;;;5104770;28;20410;-86
2023/01/09 07:21:22;;;;;;;39.57;27.63;;;6.20;99.90;;;;;;5106133;28;20413;-85
2023/01/09 07:23:48;;;;;;;39.03;27.58;;;6.10;99.90;;;;;;5107022;28;20380;-85
2023/01/09 07:26:14;;;;;;;40.72;28.58;;;6.10;99.90;;;;;;5108146;28;20394;-85
2023/01/09 07:28:39;;;;;;;40.17;28.65;;;6.10;99.90;;;;;;5108901;28;20463;-86
2023/01/09 07:31:06;;;;;;;42.60;29.80;;;6.00;99.90;;;;;;5107538;28;20411;-87
2023/01/09 07:33:32;;;;;;;42.80;29.05;;;6.00;99.90;;;;;;5107573;28;20421;-86
2023/01/09 07:35:58;;;;;;;40.35;28.00;;;6.10;99.90;;;;;;5108210;28;20372;-86
2023/01/09 07:38:24;;;;;;;42.03;29.37;;;6.20;99.90;;;;;;5108504;28;20661;-88
2023/01/09 07:40:50;;;;;;;44.35;29.92;;;6.10;99.90;;;;;;5098071;28;20437;-86
2023/01/09 07:43:16;;;;;;;48.08;29.90;;;6.10;99.90;;;;;;5106262;28;20457;-87
2023/01/09 07:45:42;;;;;;;47.30;31.23;;;6.10;99.90;;;;;;5107476;28;20821;-87
2023/01/09 07:48:08;;;;;;;43.20;30.60;;;6.10;99.90;;;;;;5107557;28;20372;-86
2023/01/09 07:50:33;;;;;;;40.15;29.73;;;6.10;99.90;;;;;;5109545;28;20460;-87
2023/01/09 07:52:59;;;;;;;41.27;29.00;;;6.30;99.90;;;;;;5106306;28;20850;-86
2023/01/09 07:55:25;;;;;;;50.03;32.00;;;6.30;99.90;;;;;;5109968;28;20368;-86
2023/01/09 07:57:51;;;;;;;44.15;29.83;;;6.30;99.90;;;;;;5105444;28;20890;-87
2023/01/09 08:00:19;;;;;;;44.45;29.98;;;6.40;99.90;;;;;;5104459;28;20435;-87
2023/01/09 08:02:50;;;;;;;44.77;29.67;;;6.40;99.90;;;;;;5108680;28;20395;-87
2023/01/09 08:05:17;;;;;;;43.25;28.58;;;6.40;99.90;;;;;;5102254;28;20400;-89
2023/01/09 08:07:45;;;;;;;44.50;29.07;;;6.50;99.90;;;;;;5104465;28;20388;-86
2023/01/09 08:10:11;;;;;;;41.80;28.27;;;6.50;99.90;;;;;;5094516;28;20877;-86
2023/01/09 08:12:37;;;;;;;47.83;30.43;;;6.60;99.90;;;;;;5093186;28;20372;-86
2023/01/09 08:15:03;;;;;;;44.60;28.77;;;6.40;99.90;;;;;;5093982;28;20419;-85
2023/01/09 08:17:28;;;;;;;37.72;28.05;;;6.60;99.90;;;;;;5092552;28;20400;-86
2023/01/09 08:19:54;;;;;;;41.67;28.80;;;6.60;99.90;;;;;;5093047;28;20841;-85
2023/01/09 08:22:20;;;;;;;41.92;28.70;;;6.60;99.90;;;;;;5094539;28;20965;-87
2023/01/09 08:24:45;;;;;;;38.27;28.50;;;6.60;99.90;;;;;;5091947;28;20932;-86
2023/01/09 08:27:11;;;;;;;38.90;27.67;;;6.70;99.90;;;;;;5090273;28;20501;-87
2023/01/09 08:29:37;;;;;;;39.50;28.45;;;6.70;99.90;;;;;;5092435;28;20387;-85
2023/01/09 08:32:02;;;;;;;41.15;28.58;;;6.70;99.90;;;;;;5091325;28;20384;-85
2023/01/09 08:34:29;;;;;;;37.13;27.43;;;6.80;99.90;;;;;;5093041;28;20954;-87
2023/01/09 08:36:54;;;;;;;38.72;28.13;;;6.70;99.90;;;;;;5095306;28;20443;-86
2023/01/09 08:39:20;;;;;;;38.20;27.08;;;6.70;99.90;;;;;;5093715;28;20500;-86
2023/01/09 08:47:17;;;;;;;33.45;25.27;;;7.00;99.90;;;;;;5073148;28;20397;-88
2023/01/09 08:49:42;;;;;;;33.47;24.88;;;6.90;99.90;;;;;;5076691;28;20397;-86
2023/01/09 08:52:08;;;;;;;34.42;25.52;;;6.90;99.90;;;;;;5077606;28;20378;-85
2023/01/09 08:54:37;;;;;;;35.05;25.00;;;6.80;99.90;;;;;;5097870;28;20434;-86
2023/01/09 08:57:03;;;;;;;32.55;24.70;;;6.90;99.90;;;;;;5097541;28;20419;-86
2023/01/09 08:59:29;;;;;;;30.85;23.55;;;6.90;99.90;;;;;;5099141;28;20388;-86
2023/01/09 09:01:56;;;;;;;29.60;23.27;;;6.90;99.90;;;;;;5091126;28;20384;-85
2023/01/09 09:04:21;;;;;;;28.57;22.40;;;7.00;99.90;;;;;;5079052;28;20386;-87
2023/01/09 09:06:47;;;;;;;30.30;23.30;;;7.00;99.90;;;;;;5078445;28;20446;-85
2023/01/09 09:09:13;;;;;;;29.37;23.00;;;7.00;99.90;;;;;;5080066;28;20382;-86
2023/01/09 09:11:40;;;;;;;27.80;21.80;;;7.10;99.90;;;;;;5073237;28;20377;-85
2023/01/09 09:16:53;;;;;;;25.33;20.85;;;7.30;99.90;;;;;;5095637;28;20438;-86
2023/01/09 09:19:19;;;;;;;26.80;21.10;;;7.30;99.90;;;;;;5093415;28;20420;-86
2023/01/09 09:21:45;;;;;;;23.80;20.27;;;7.30;99.90;;;;;;5094421;28;20392;-86
2023/01/09 09:24:10;;;;;;;26.05;20.95;;;7.30;99.90;;;;;;5092673;28;20404;-86
2023/01/09 09:26:36;;;;;;;25.70;20.60;;;7.20;99.90;;;;;;5095068;28;20483;-86
2023/01/09 09:29:02;;;;;;;26.67;21.15;;;7.20;99.90;;;;;;5096020;28;20414;-85
2023/01/09 09:31:28;;;;;;;24.17;20.33;;;7.30;99.90;;;;;;5096540;28;20470;-85
2023/01/09 09:33:53;;;;;;;25.47;19.40;;;7.50;99.90;;;;;;5096228;28;20444;-86
2023/01/09 09:36:19;;;;;;;22.80;19.17;;;7.60;99.90;;;;;;5095448;28;20384;-85
2023/01/09 09:38:45;;;;;;;20.73;18.07;;;7.60;99.90;;;;;;5095845;28;20469;-87
2023/01/09 09:45:00;;;;;;;19.55;16.00;;;8.10;99.90;;;;;;5095926;28;20384;-85
2023/01/09 09:47:40;;;;;;;18.67;16.10;;;8.10;99.90;;;;;;5094438;28;20381;-86
2023/01/09 09:50:24;;;;;;;18.10;16.13;;;8.10;99.90;;;;;;5094227;28;20377;-86
2023/01/09 09:53:35;;;;;;;15.15;13.55;;;8.20;99.90;;;;;;5095615;28;20368;-85
2023/01/09 09:56:03;;;;;;;17.05;14.65;;;8.40;99.90;;;;;;5091745;28;21181;-86
2023/01/09 09:58:38;;;;;;;16.15;14.10;;;8.30;99.90;;;;;;5091980;28;20404;-85
2023/01/09 10:01:06;;;;;;;15.32;13.35;;;8.20;99.90;;;;;;5092605;28;20373;-85
2023/01/09 10:03:46;;;;;;;15.45;13.60;;;8.10;99.90;;;;;;5090670;28;20376;-86
2023/01/09 10:06:36;;;;;;;15.30;13.43;;;8.10;99.90;;;;;;5092660;28;20372;-88
2023/01/09 10:09:34;;;;;;;14.00;12.32;;;8.00;99.90;;;;;;5096241;28;20369;-87
2023/01/09 10:12:06;;;;;;;14.18;12.52;;;8.10;99.90;;;;;;5078893;28;21143;-87
2023/01/09 10:14:32;;;;;;;12.88;11.57;;;8.10;99.90;;;;;;5076244;28;20397;-87
2023/01/09 10:17:24;;;;;;;13.02;11.57;;;8.20;99.90;;;;;;5087392;28;21202;-89
2023/01/09 10:20:23;;;;;;;13.07;11.65;;;8.20;99.90;;;;;;5083286;28;20388;-89
2023/01/09 10:23:00;;;;;;;12.80;11.18;;;8.50;99.90;;;;;;5050475;28;20400;-87
2023/01/09 10:25:53;;;;;;;11.80;10.57;;;8.50;99.90;;;;;;5094537;28;20400;-87
2023/01/09 10:28:52;;;;;;;12.13;10.93;;;8.50;99.90;;;;;;5085054;28;20446;-90
2023/01/09 10:31:35;;;;;;;12.18;10.65;;;8.40;99.90;;;;;;5074209;28;20465;-87
2023/01/09 10:34:10;;;;;;;11.82;10.55;;;8.30;99.90;;;;;;5084412;28;20411;-87
2023/01/09 10:37:03;;;;;;;11.70;10.50;;;8.40;99.90;;;;;;5087595;28;20393;-86
2023/01/09 10:39:41;;;;;;;13.63;10.45;;;8.30;99.90;;;;;;5088239;28;20404;-87
2023/01/09 10:42:19;;;;;;;11.65;10.45;;;8.30;99.90;;;;;;5089748;28;21017;-88
2023/01/09 10:44:57;;;;;;;12.07;10.88;;;8.30;99.90;;;;;;5083138;28;20388;-87
2023/01/09 10:47:33;;;;;;;12.18;10.85;;;8.30;99.90;;;;;;5083672;28;20373;-90
2023/01/09 10:50:17;;;;;;;11.07;9.98;;;8.30;99.90;;;;;;5090553;28;20506;-88
2023/01/09 10:52:43;;;;;;;11.18;10.07;;;8.40;99.90;;;;;;5092727;28;20384;-86
2023/01/09 10:55:18;;;;;;;12.55;10.13;;;8.40;99.90;;;;;;5091898;28;20390;-90
2023/01/09 10:57:48;;;;;;;10.68;9.68;;;8.40;99.90;;;;;;5089024;28;20479;-91
2023/01/09 11:00:23;;;;;;;10.30;9.30;;;8.40;99.90;;;;;;5086220;28;20429;-88
2023/01/09 11:02:54;;;;;;;10.27;9.18;;;8.50;99.90;;;;;;5091744;28;20426;-89
2023/01/09 11:05:32;;;;;;;9.93;8.93;;;8.60;99.90;;;;;;5092674;28;20396;-91
2023/01/09 11:08:23;;;;;;;11.20;8.98;;;8.60;99.90;;;;;;5082737;28;20402;-90
2023/01/09 11:10:52;;;;;;;10.32;9.18;;;8.70;99.90;;;;;;5081058;28;20402;-89
2023/01/09 11:13:22;;;;;;;10.45;8.90;;;8.50;99.90;;;;;;5075724;28;20425;-88
2023/01/09 11:16:05;;;;;;;9.95;8.38;;;8.60;99.90;;;;;;5072553;28;20369;-89
2023/01/09 11:18:54;;;;;;;9.05;7.95;;;8.50;99.90;;;;;;5072994;28;20406;-88
2023/01/09 11:21:49;;;;;;;9.98;8.27;;;8.60;99.90;;;;;;5072024;28;20888;-88
2023/01/09 11:24:18;;;;;;;8.90;7.97;;;8.60;99.90;;;;;;5093456;28;20399;-87
2023/01/09 11:26:52;;;;;;;9.05;7.40;;;8.80;99.90;;;;;;5090908;28;20384;-87
2023/01/09 11:29:25;;;;;;;6.90;6.00;;;8.80;99.90;;;;;;5084496;28;20393;-86
2023/01/09 11:31:54;;;;;;;8.20;5.90;;;8.80;99.90;;;;;;5089675;28;20509;-85
2023/01/09 11:34:22;;;;;;;7.03;5.38;;;8.90;99.90;;;;;;5087793;28;20441;-90
2023/01/09 11:36:50;;;;;;;8.65;4.80;;;9.00;99.90;;;;;;5085710;28;20461;-86
2023/01/09 11:39:26;;;;;;;6.47;4.85;;;9.00;99.90;;;;;;5090174;28;20388;-87
2023/01/09 11:41:56;;;;;;;7.53;4.95;;;9.10;99.90;;;;;;5089091;28;20389;-88
2023/01/09 11:44:27;;;;;;;6.35;4.60;;;8.90;99.90;;;;;;5089184;28;20862;-87
2023/01/09 11:46:54;;;;;;;4.65;3.90;;;8.70;99.90;;;;;;5093385;28;20427;-85
2023/01/09 11:49:30;;;;;;;5.45;4.15;;;8.70;99.90;;;;;;5082962;28;20440;-85
2023/01/09 11:52:11;;;;;;;6.47;4.00;;;8.70;99.90;;;;;;5100773;28;20422;-85
2023/01/09 11:54:39;;;;;;;5.97;3.93;;;8.70;99.90;;;;;;5095957;28;20536;-87
2023/01/09 11:57:09;;;;;;;5.13;3.73;;;8.70;99.90;;;;;;5092967;28;20400;-88
2023/01/09 11:59:35;;;;;;;6.43;4.10;;;8.70;99.90;;;;;;5095049;28;20373;-86
2023/01/09 12:02:12;;;;;;;6.20;3.60;;;8.80;99.90;;;;;;5092398;28;20463;-87
2023/01/09 12:04:57;;;;;;;6.45;4.13;;;8.70;99.90;;;;;;5091698;28;20393;-84
2023/01/09 12:07:44;;;;;;;5.90;3.80;;;8.70;99.90;;;;;;5092498;28;20719;-86
2023/01/09 12:10:41;;;;;;;5.95;3.80;;;8.70;99.90;;;;;;5091756;28;20380;-87
2023/01/09 12:13:16;;;;;;;5.53;3.30;;;9.00;99.90;;;;;;5090634;28;20392;-85
2023/01/09 12:16:12;;;;;;;5.57;3.30;;;9.00;99.90;;;;;;5090390;28;20373;-84
2023/01/09 12:18:49;;;;;;;6.82;3.60;;;9.20;99.90;;;;;;5090533;28;20404;-87
2023/01/09 12:21:27;;;;;;;6.28;3.70;;;9.20;99.90;;;;;;5090298;28;20384;-85
2023/01/09 12:24:33;;;;;;;5.78;3.63;;;9.20;99.90;;;;;;5089712;28;20396;-85
2023/01/09 12:27:17;;;;;;;5.63;3.85;;;9.00;99.90;;;;;;5091790;28;20377;-86
2023/01/09 12:30:21;;;;;;;5.70;4.05;;;8.90;99.90;;;;;;5091341;28;21205;-87
2023/01/09 12:33:24;;;;;;;6.97;4.05;;;8.50;99.90;;;;;;5089865;28;20373;-85
2023/01/09 12:36:21;;;;;;;6.07;4.00;;;8.60;99.90;;;;;;5090854;28;20383;-89
2023/01/09 12:38:55;;;;;;;5.70;4.43;;;8.70;99.90;;;;;;5076160;28;20408;-87
2023/01/09 12:41:51;;;;;;;6.03;3.90;;;8.70;99.90;;;;;;5070677;28;20382;-86
2023/01/09 12:44:25;;;;;;;5.55;3.85;;;8.60;99.90;;;;;;5070157;28;20424;-88
2023/01/09 12:47:14;;;;;;;6.88;4.60;;;8.70;99.90;;;;;;5069415;28;20378;-87
2023/01/09 12:49:52;;;;;;;6.53;4.07;;;8.90;99.90;;;;;;5071111;28;20923;-86
2023/01/09 12:52:35;;;;;;;8.48;5.10;;;9.00;99.90;;;;;;5069936;28;20386;-88
2023/01/09 12:55:15;;;;;;;7.03;4.55;;;9.10;99.90;;;;;;5071258;28;20436;-89
2023/01/09 12:58:07;;;;;;;6.90;4.47;;;9.20;99.90;;;;;;5069361;28;20441;-87
2023/01/09 13:00:40;;;;;;;9.15;4.70;;;9.30;99.90;;;;;;5070528;28;20378;-87
2023/01/09 13:03:22;;;;;;;6.80;4.18;;;9.40;99.90;;;;;;5069763;28;20377;-86
2023/01/09 13:05:53;;;;;;;5.45;3.78;;;9.30;99.90;;;;;;5082928;28;20487;-86
2023/01/09 13:08:40;;;;;;;7.35;4.25;;;9.00;99.90;;;;;;5089107;28;20431;-87
2023/01/09 13:11:09;;;;;;;9.70;4.00;;;8.90;99.90;;;;;;5083990;28;20408;-88
2023/01/09 13:13:44;;;;;;;8.03;4.23;;;8.80;99.90;;;;;;5081565;28;20374;-85
2023/01/09 13:16:40;;;;;;;4.55;3.53;;;9.00;99.90;;;;;;5078830;28;20444;-86
2023/01/09 13:19:27;;;;;;;4.63;3.63;;;8.90;99.90;;;;;;5074878;28;20401;-84